Time;durP1;ratioP1;P1;durP2;ratioP2;P2;SDS_P1;SDS_P2;PMS_P1;PMS_P2;Temp;Humidity;BMP_temperature;BMP_pressure;BME280_temperature;BME280_humidity;BME280_pressure;Samples;Min_cycle;Max_cycle;Signal;HPM_P1;HPM_P2
2021/12/05 00:24:15;;;;;;;2.30;1.53;;;9.80;59.50;;;;;;4963809;28;20792;-47
2021/12/05 00:26:50;;;;;;;6.30;3.17;;;9.90;59.30;;;;;;4963580;28;20449;-46
2021/12/05 00:32:04;;;;;;;3.30;1.67;;;9.80;59.40;;;;;;4965509;28;20481;-47
2021/12/05 01:13:58;;;;;;;3.10;1.50;;;10.30;56.80;;;;;;4964201;28;20870;-46
2021/12/05 01:16:26;;;;;;;3.90;1.57;;;10.30;57.20;;;;;;4966861;28;20883;-46
2021/12/05 01:18:52;;;;;;;4.70;1.67;;;10.30;57.10;;;;;;4971878;28;20439;-47
2021/12/05 01:21:21;;;;;;;1.90;1.30;;;10.30;57.20;;;;;;4966056;28;20530;-46
2021/12/05 01:26:28;;;;;;;3.50;1.47;;;10.20;57.60;;;;;;4963220;28;20458;-46
2021/12/05 01:29:05;;;;;;;3.37;1.43;;;10.10;57.70;;;;;;4963037;28;20454;-48
2021/12/05 01:44:30;;;;;;;6.73;1.60;;;10.00;57.70;;;;;;4965956;28;20530;-47
2021/12/05 02:00:50;;;;;;;3.00;1.87;;;9.70;59.00;;;;;;4929162;28;20451;-51
2021/12/05 02:07:49;;;;;;;4.10;1.20;;;9.70;58.90;;;;;;4966698;28;20856;-47
2021/12/05 02:30:06;;;;;;;1.63;1.20;;;9.50;59.30;;;;;;4967789;28;20509;-48
2021/12/05 02:43:31;;;;;;;1.50;1.40;;;9.60;59.50;;;;;;4967581;28;20925;-47
2021/12/05 02:46:00;;;;;;;4.63;1.53;;;9.50;59.50;;;;;;4964841;28;20462;-49
2021/12/05 02:48:29;;;;;;;3.63;1.37;;;9.60;59.30;;;;;;4962424;28;20487;-47
2021/12/05 02:50:57;;;;;;;1.10;1.00;;;9.50;59.20;;;;;;4963597;28;20825;-48
2021/12/05 02:53:33;;;;;;;2.90;1.30;;;9.50;59.40;;;;;;4955287;28;20525;-47
2021/12/05 02:56:00;;;;;;;2.20;1.10;;;9.50;59.50;;;;;;4963767;28;20483;-48
2021/12/05 02:58:45;;;;;;;2.60;1.30;;;9.40;59.30;;;;;;4964431;28;20447;-49
2021/12/05 03:01:22;;;;;;;1.70;1.30;;;9.50;59.20;;;;;;4964643;28;20435;-47
2021/12/05 03:03:49;;;;;;;4.33;1.20;;;9.70;58.80;;;;;;4965301;28;20442;-49
2021/12/05 03:06:24;;;;;;;2.93;1.10;;;9.80;58.70;;;;;;4965274;28;20445;-47
2021/12/05 03:08:57;;;;;;;2.20;1.00;;;9.80;58.40;;;;;;4962357;28;20454;-47
2021/12/05 03:11:23;;;;;;;4.93;1.07;;;9.80;58.40;;;;;;4961030;28;20808;-48
2021/12/05 03:13:49;;;;;;;2.30;1.13;;;9.90;58.40;;;;;;4964500;28;20498;-47
2021/12/05 03:16:17;;;;;;;5.03;1.30;;;9.90;58.10;;;;;;4960770;28;21246;-47
2021/12/05 03:18:44;;;;;;;3.27;1.13;;;9.90;57.90;;;;;;4960832;28;20560;-48
2021/12/05 03:21:10;;;;;;;7.40;2.60;;;9.80;58.10;;;;;;4964583;28;20437;-48
2021/12/05 03:23:38;;;;;;;5.97;1.53;;;9.60;58.00;;;;;;4969618;28;20529;-47
2021/12/05 03:26:07;;;;;;;1.93;1.23;;;9.50;58.50;;;;;;4968504;28;20988;-49
2021/12/05 03:28:33;;;;;;;1.90;1.40;;;9.30;58.70;;;;;;4972763;28;20450;-48
2021/12/05 03:31:00;;;;;;;1.80;0.90;;;9.20;59.10;;;;;;4962710;28;20443;-47
2021/12/05 03:33:26;;;;;;;2.77;1.13;;;9.10;59.50;;;;;;4967192;28;20536;-47
2021/12/05 03:35:51;;;;;;;2.50;1.30;;;9.00;59.50;;;;;;4966085;28;20934;-47
2021/12/05 03:38:17;;;;;;;1.93;1.10;;;8.80;59.80;;;;;;4965215;28;20688;-47
2021/12/05 03:40:43;;;;;;;4.67;1.90;;;8.80;60.60;;;;;;4971738;28;20431;-47
2021/12/05 03:43:11;;;;;;;3.37;1.30;;;9.00;60.30;;;;;;4965747;28;20444;-47
2021/12/05 03:45:42;;;;;;;3.90;1.30;;;9.00;59.90;;;;;;4962709;28;20872;-47
2021/12/05 03:48:10;;;;;;;2.27;1.20;;;9.10;59.70;;;;;;4963564;28;20451;-47
2021/12/05 03:50:36;;;;;;;2.40;1.27;;;9.00;59.50;;;;;;4963237;28;20435;-46
2021/12/05 03:53:05;;;;;;;2.30;1.23;;;9.00;59.60;;;;;;4966813;28;20861;-48
2021/12/05 03:55:31;;;;;;;1.07;1.00;;;9.10;59.60;;;;;;4967777;28;20569;-48
2021/12/05 03:57:56;;;;;;;2.80;1.40;;;9.00;59.40;;;;;;4971506;28;21076;-47
2021/12/05 04:00:27;;;;;;;2.40;1.23;;;9.10;59.40;;;;;;4962593;28;20828;-47
2021/12/05 04:02:55;;;;;;;5.53;2.60;;;9.10;59.30;;;;;;4970653;28;20577;-47
2021/12/05 04:05:22;;;;;;;2.00;1.20;;;9.10;59.40;;;;;;4964581;28;20814;-47
2021/12/05 04:07:48;;;;;;;5.07;1.10;;;9.00;59.10;;;;;;4967050;28;20446;-46
2021/12/05 04:10:14;;;;;;;2.70;0.90;;;8.90;59.40;;;;;;4962418;28;20463;-47
2021/12/05 04:12:40;;;;;;;3.03;1.20;;;9.10;59.10;;;;;;4964574;28;21960;-49
2021/12/05 04:15:07;;;;;;;2.23;1.30;;;9.40;58.90;;;;;;4967051;28;20494;-47
2021/12/05 04:17:33;;;;;;;3.03;1.20;;;9.40;58.40;;;;;;4963529;28;20249;-46
2021/12/05 04:19:59;;;;;;;3.23;1.10;;;9.50;58.10;;;;;;4964395;28;20454;-48
2021/12/05 04:22:24;;;;;;;1.93;1.23;;;9.50;58.60;;;;;;4961842;28;20195;-47
2021/12/05 04:24:50;;;;;;;4.10;1.27;;;9.60;58.00;;;;;;4962583;28;20254;-50
2021/12/05 04:27:16;;;;;;;1.00;0.90;;;9.60;57.70;;;;;;4967446;28;20195;-49
2021/12/05 04:29:42;;;;;;;3.10;1.40;;;9.70;57.40;;;;;;4966923;28;20600;-48
2021/12/05 04:32:08;;;;;;;2.30;1.30;;;9.70;57.30;;;;;;4962499;28;20451;-47
2021/12/05 04:34:34;;;;;;;2.80;1.20;;;9.70;57.10;;;;;;4962332;28;20235;-47
2021/12/05 04:37:00;;;;;;;1.60;1.10;;;9.60;57.00;;;;;;4963654;28;20443;-47
2021/12/05 04:39:27;;;;;;;2.07;1.23;;;9.70;56.80;;;;;;4962882;28;20236;-49
2021/12/05 04:41:54;;;;;;;2.87;1.00;;;9.70;56.60;;;;;;4959448;28;20686;-48
2021/12/05 04:44:22;;;;;;;1.53;1.43;;;9.80;56.70;;;;;;4960528;28;21429;-48
2021/12/05 04:46:48;;;;;;;4.00;1.10;;;9.70;56.60;;;;;;4966853;28;20447;-47
2021/12/05 04:49:14;;;;;;;2.80;1.23;;;9.50;56.70;;;;;;4968489;28;20445;-46
2021/12/05 04:51:43;;;;;;;4.93;2.47;;;9.50;56.90;;;;;;4961128;28;20550;-46
2021/12/05 04:54:13;;;;;;;4.90;1.30;;;9.20;57.20;;;;;;4964479;28;20486;-50
2021/12/05 04:56:40;;;;;;;7.53;1.30;;;9.10;57.80;;;;;;4963426;28;20434;-49
2021/12/05 04:59:13;;;;;;;4.40;1.30;;;9.20;57.70;;;;;;4967773;28;20461;-47
2021/12/05 05:01:44;;;;;;;3.73;1.23;;;9.20;57.70;;;;;;4964355;28;20446;-47
2021/12/05 05:04:25;;;;;;;1.53;1.20;;;9.20;57.80;;;;;;4963382;28;20447;-47
2021/12/05 05:06:53;;;;;;;2.33;1.07;;;9.00;58.20;;;;;;4959680;28;20431;-49
2021/12/05 05:09:19;;;;;;;2.87;1.60;;;8.90;58.50;;;;;;4966937;28;20490;-50
2021/12/05 05:11:45;;;;;;;3.00;1.40;;;8.70;59.00;;;;;;4963363;28;20435;-47
2021/12/05 05:14:13;;;;;;;2.60;1.30;;;8.80;59.50;;;;;;4966167;28;20506;-47
2021/12/05 05:16:39;;;;;;;2.10;1.50;;;8.70;58.90;;;;;;4971671;28;20442;-47
2021/12/05 05:19:04;;;;;;;2.00;1.30;;;8.80;59.50;;;;;;4970409;28;20492;-47
2021/12/05 05:24:20;;;;;;;7.33;1.40;;;8.70;59.40;;;;;;4970796;28;20261;-49
2021/12/05 05:48:29;;;;;;;2.60;1.13;;;8.30;61.00;;;;;;4960174;28;20434;-48
2021/12/05 05:50:55;;;;;;;1.77;1.50;;;8.50;60.40;;;;;;4966938;28;20446;-46
2021/12/05 05:53:20;;;;;;;4.50;1.33;;;8.70;59.90;;;;;;4970986;28;21113;-47
2021/12/05 05:55:48;;;;;;;3.57;1.00;;;9.00;59.20;;;;;;4967330;28;20250;-46
2021/12/05 05:58:16;;;;;;;1.80;0.93;;;9.10;58.70;;;;;;4973423;28;20199;-47
2021/12/05 06:03:18;;;;;;;3.03;1.40;;;9.20;58.40;;;;;;4970011;28;20435;-47
2021/12/05 06:03:38;;;;;;;3.07;1.20;;;9.30;58.20;;;;;;4968411;28;21241;-49
2021/12/05 06:06:10;;;;;;;3.60;1.00;;;9.40;58.00;;;;;;4968679;28;20442;-47
2021/12/05 06:08:39;;;;;;;1.53;1.10;;;9.50;58.10;;;;;;4967040;28;20196;-48
2021/12/05 06:11:08;;;;;;;2.00;1.13;;;9.50;58.10;;;;;;4967226;28;20477;-49
2021/12/05 06:13:36;;;;;;;3.13;1.40;;;9.50;58.10;;;;;;4967085;28;20482;-47
2021/12/05 06:16:02;;;;;;;3.80;1.50;;;9.50;58.00;;;;;;4966450;28;20521;-47
2021/12/05 06:18:28;;;;;;;2.73;1.20;;;9.50;57.80;;;;;;4965435;28;20453;-47
2021/12/05 06:20:55;;;;;;;13.93;1.40;;;9.60;58.50;;;;;;4965856;28;20435;-47
2021/12/05 06:23:21;;;;;;;2.20;1.00;;;9.90;59.80;;;;;;4963545;28;20849;-48
2021/12/05 06:25:50;;;;;;;2.10;0.90;;;10.20;59.30;;;;;;4962425;28;20455;-50
2021/12/05 06:28:19;;;;;;;2.37;0.83;;;10.40;58.80;;;;;;4961501;28;20249;-49
2021/12/05 06:41:50;;;;;;;1.97;1.40;;;11.00;55.50;;;;;;4963938;28;20458;-48
2021/12/05 06:47:00;;;;;;;1.43;1.00;;;11.20;55.00;;;;;;4972090;28;20433;-50
2021/12/05 06:49:26;;;;;;;2.90;2.00;;;11.30;54.30;;;;;;4958358;28;20457;-46
2021/12/05 06:51:52;;;;;;;4.10;1.23;;;11.40;53.90;;;;;;4963694;28;20949;-48
2021/12/05 06:54:17;;;;;;;2.07;1.00;;;11.40;53.60;;;;;;4962096;28;20726;-47
2021/12/05 06:56:43;;;;;;;1.67;1.20;;;11.50;53.60;;;;;;4961472;28;20573;-48
2021/12/05 06:59:08;;;;;;;2.20;1.90;;;11.60;53.30;;;;;;4957592;28;20589;-47
2021/12/05 07:01:34;;;;;;;3.70;1.43;;;11.60;52.60;;;;;;4962491;28;20200;-46
2021/12/05 07:04:08;;;;;;;4.00;1.20;;;11.60;52.50;;;;;;4954809;28;20196;-48
2021/12/05 07:06:34;;;;;;;2.60;1.17;;;11.60;52.70;;;;;;4961692;28;20184;-47
2021/12/05 07:09:07;;;;;;;2.07;1.27;;;11.50;52.30;;;;;;4966803;28;20439;-48
2021/12/05 07:21:38;;;;;;;2.20;0.97;;;10.90;52.10;;;;;;4967325;28;20812;-47
2021/12/05 07:26:50;;;;;;;1.53;0.80;;;9.80;55.20;;;;;;4958717;28;20791;-48
2021/12/05 07:42:46;;;;;;;2.60;1.30;;;9.00;57.90;;;;;;4966683;28;20526;-50
2021/12/05 07:45:19;;;;;;;3.87;1.10;;;9.20;57.50;;;;;;4966494;28;20533;-49
2021/12/05 07:47:48;;;;;;;2.40;0.93;;;9.30;57.60;;;;;;4966397;28;21168;-47
2021/12/05 07:50:14;;;;;;;4.70;1.63;;;9.30;57.20;;;;;;4958304;28;20814;-47
2021/12/05 07:52:44;;;;;;;2.20;1.17;;;9.20;57.40;;;;;;4964560;28;20438;-48
2021/12/05 07:55:21;;;;;;;2.70;1.60;;;9.30;57.60;;;;;;4955720;28;20514;-52
2021/12/05 07:58:52;;;;;;;2.50;1.40;;;9.30;57.40;;;;;;4962734;28;20444;-46
2021/12/05 08:14:38;;;;;;;1.30;1.20;;;9.50;57.40;;;;;;4964042;28;21104;-49
2021/12/05 08:17:07;;;;;;;3.13;1.50;;;9.60;57.40;;;;;;4967720;28;20485;-48
2021/12/05 08:19:32;;;;;;;3.27;1.57;;;9.70;57.60;;;;;;4962986;28;20478;-46
2021/12/05 08:21:58;;;;;;;1.77;1.57;;;9.80;57.20;;;;;;4963538;28;20479;-47
2021/12/05 08:24:25;;;;;;;3.20;1.13;;;9.80;57.10;;;;;;4960783;28;20204;-47
2021/12/05 08:26:52;;;;;;;2.47;1.40;;;9.90;56.80;;;;;;4965235;28;20199;-48
2021/12/05 08:29:25;;;;;;;4.77;2.23;;;9.80;57.20;;;;;;4967262;28;20438;-49
2021/12/05 10:09:22;;;;;;;1.50;1.30;;;13.10;48.00;;;;;;4974496;28;20984;-47
2021/12/05 10:37:20;;;;;;;2.20;1.20;;;12.50;49.30;;;;;;4974180;28;20563;-47
2021/12/05 10:39:47;;;;;;;1.73;1.10;;;12.50;48.90;;;;;;4972097;28;20460;-47
2021/12/05 10:42:38;;;;;;;1.90;1.27;;;12.90;49.00;;;;;;4974720;28;20521;-47
2021/12/05 10:45:09;;;;;;;3.30;1.40;;;12.80;47.80;;;;;;4963863;28;20443;-46
2021/12/05 10:47:39;;;;;;;2.93;1.07;;;13.00;49.10;;;;;;4954992;28;20808;-47
2021/12/05 10:50:32;;;;;;;2.87;0.90;;;13.20;48.50;;;;;;4954552;28;20416;-46
2021/12/05 10:53:17;;;;;;;3.27;1.20;;;13.30;47.50;;;;;;4958272;28;20485;-48
2021/12/05 10:55:44;;;;;;;3.70;1.20;;;13.30;47.30;;;;;;4970385;28;20537;-47
2021/12/05 10:58:10;;;;;;;3.90;1.33;;;13.70;47.10;;;;;;4974095;28;20876;-46
2021/12/05 11:00:35;;;;;;;2.83;0.97;;;13.70;46.10;;;;;;4973332;28;20510;-46
2021/12/05 11:03:19;;;;;;;1.83;0.90;;;13.80;46.10;;;;;;4974095;28;20202;-46
2021/12/05 11:05:46;;;;;;;2.90;1.40;;;13.80;45.40;;;;;;4962143;28;20198;-46
2021/12/05 11:08:32;;;;;;;4.93;1.20;;;13.60;45.80;;;;;;4957871;28;20514;-46
2021/12/05 11:11:16;;;;;;;1.33;0.90;;;13.80;45.80;;;;;;4963195;28;20445;-48
2021/12/05 11:13:43;;;;;;;2.37;1.07;;;14.10;45.30;;;;;;4973440;28;20541;-46
2021/12/05 11:16:31;;;;;;;2.77;1.30;;;14.10;44.80;;;;;;4969589;28;20482;-46
2021/12/05 11:18:56;;;;;;;3.73;1.00;;;13.90;45.40;;;;;;4962766;28;20454;-48
2021/12/05 11:21:34;;;;;;;2.10;1.00;;;14.00;45.50;;;;;;4973150;28;20790;-46
2021/12/05 11:24:20;;;;;;;1.73;1.20;;;13.90;45.80;;;;;;4968061;28;20232;-48
2021/12/05 11:27:06;;;;;;;2.77;1.00;;;14.00;46.00;;;;;;4963212;28;20862;-46
2021/12/05 11:29:45;;;;;;;1.47;0.90;;;14.10;45.90;;;;;;4968233;28;20430;-46
2021/12/05 11:32:14;;;;;;;1.20;0.80;;;14.20;45.70;;;;;;4971751;28;20449;-47
2021/12/05 11:34:39;;;;;;;1.70;0.70;;;14.40;45.70;;;;;;4972674;28;20489;-47
2021/12/05 11:37:05;;;;;;;5.57;1.10;;;14.40;45.10;;;;;;4973152;28;20944;-46
2021/12/05 11:39:31;;;;;;;2.77;0.80;;;14.40;44.80;;;;;;4972880;28;20207;-47
2021/12/05 11:41:57;;;;;;;3.00;0.90;;;14.50;45.30;;;;;;4973097;28;20206;-46
2021/12/05 11:44:24;;;;;;;1.47;1.00;;;14.30;44.70;;;;;;4972608;28;20828;-46
2021/12/05 11:46:51;;;;;;;2.00;0.87;;;14.20;44.90;;;;;;4972594;28;20262;-47
2021/12/05 11:49:23;;;;;;;1.57;1.00;;;14.10;44.50;;;;;;4954641;28;20498;-47
2021/12/05 11:51:53;;;;;;;1.20;0.70;;;13.80;43.80;;;;;;4953707;28;20462;-48
2021/12/05 11:54:30;;;;;;;1.17;1.07;;;13.60;44.10;;;;;;4967305;28;20494;-47
2021/12/05 11:57:17;;;;;;;4.27;0.97;;;13.20;45.60;;;;;;4968796;28;20450;-46
2021/12/05 11:59:53;;;;;;;1.90;0.90;;;13.30;45.90;;;;;;4962121;28;20587;-47
2021/12/05 12:02:29;;;;;;;1.30;1.20;;;13.00;45.40;;;;;;4972818;28;20465;-48
2021/12/05 12:05:14;;;;;;;2.30;0.90;;;12.90;46.30;;;;;;4971911;28;20549;-46
2021/12/05 12:07:48;;;;;;;1.00;0.80;;;12.90;46.50;;;;;;4966150;28;20447;-47
2021/12/05 12:10:30;;;;;;;1.07;0.90;;;12.50;46.40;;;;;;4955122;28;20446;-48
2021/12/05 12:13:18;;;;;;;2.27;0.83;;;12.30;47.00;;;;;;4953617;28;20529;-46
2021/12/05 12:15:47;;;;;;;0.90;0.70;;;12.30;47.70;;;;;;4952608;28;20479;-46
2021/12/05 12:18:26;;;;;;;2.40;1.10;;;12.20;47.50;;;;;;4964663;28;20456;-47
2021/12/05 12:20:53;;;;;;;1.30;0.93;;;12.10;47.70;;;;;;4962433;28;20446;-46
2021/12/05 12:23:20;;;;;;;1.90;0.97;;;12.30;47.90;;;;;;4965283;28;20529;-47
2021/12/05 12:25:50;;;;;;;2.03;1.10;;;12.20;47.80;;;;;;4966352;28;20454;-46
2021/12/05 12:28:17;;;;;;;1.20;1.10;;;12.30;48.00;;;;;;4961030;28;20853;-47
2021/12/05 12:30:48;;;;;;;1.33;1.13;;;12.40;47.90;;;;;;4964857;28;20456;-48
2021/12/05 12:33:20;;;;;;;1.40;1.20;;;12.50;47.30;;;;;;4966852;28;20434;-47
2021/12/05 12:35:48;;;;;;;1.53;1.03;;;12.50;47.00;;;;;;4969315;28;20439;-47
2021/12/05 12:38:31;;;;;;;1.60;1.10;;;12.50;47.10;;;;;;4967987;28;20438;-47
2021/12/05 12:41:03;;;;;;;2.20;1.10;;;12.50;47.50;;;;;;4967113;28;20435;-47
2021/12/05 12:43:51;;;;;;;2.20;1.10;;;12.60;47.20;;;;;;4969754;28;20582;-47
2021/12/05 12:46:16;;;;;;;1.33;1.10;;;12.70;47.20;;;;;;4965247;28;20458;-47
2021/12/05 12:48:42;;;;;;;3.37;1.00;;;12.60;46.90;;;;;;4967472;28;20439;-47
2021/12/05 12:51:07;;;;;;;1.10;0.90;;;12.60;47.00;;;;;;4966659;28;20251;-48
2021/12/05 12:53:37;;;;;;;4.00;1.40;;;12.60;47.40;;;;;;4970402;28;20714;-49
2021/12/05 12:56:11;;;;;;;1.40;1.30;;;12.60;47.20;;;;;;4968353;28;20207;-47
2021/12/05 12:58:49;;;;;;;3.50;1.00;;;12.50;47.20;;;;;;4968035;28;20442;-47
2021/12/05 13:02:26;;;;;;;2.30;1.00;;;12.40;47.60;;;;;;4966090;28;20446;-47
2021/12/05 13:12:32;;;;;;;1.70;1.40;;;12.40;47.80;;;;;;4966109;28;20434;-47
2021/12/05 13:15:11;;;;;;;1.17;1.07;;;12.60;48.20;;;;;;4961686;28;20478;-50
2021/12/05 13:17:46;;;;;;;1.27;1.10;;;12.70;47.90;;;;;;4967576;28;20450;-49
2021/12/05 13:20:14;;;;;;;1.57;1.17;;;12.70;47.90;;;;;;4965279;28;20435;-50
2021/12/05 13:23:08;;;;;;;1.83;1.30;;;12.70;47.80;;;;;;4966352;28;20811;-49
2021/12/05 13:25:58;;;;;;;1.23;1.10;;;12.70;47.30;;;;;;4964202;28;20478;-47
2021/12/05 13:28:33;;;;;;;2.20;1.50;;;12.80;47.70;;;;;;4964550;28;20521;-49
2021/12/05 13:31:19;;;;;;;1.93;1.03;;;12.80;47.40;;;;;;4961870;28;20449;-47
2021/12/05 13:33:45;;;;;;;2.63;0.90;;;12.90;47.20;;;;;;4965205;28;20498;-49
2021/12/05 13:36:32;;;;;;;1.20;1.10;;;13.00;47.10;;;;;;4967350;28;21036;-48
2021/12/05 13:38:58;;;;;;;2.10;1.47;;;13.10;46.80;;;;;;4966078;28;20302;-52
2021/12/05 13:41:24;;;;;;;2.27;1.30;;;13.20;47.50;;;;;;4969973;28;20593;-48
2021/12/05 13:43:59;;;;;;;1.50;1.20;;;13.40;47.70;;;;;;4971472;28;20504;-50
2021/12/05 13:46:39;;;;;;;1.97;1.60;;;13.60;47.40;;;;;;4966997;28;21815;-48
2021/12/05 13:49:35;;;;;;;0.93;0.80;;;13.60;45.60;;;;;;4968555;28;20525;-47
2021/12/05 13:52:31;;;;;;;1.00;0.83;;;13.40;45.40;;;;;;4967940;28;20426;-47
2021/12/05 13:55:31;;;;;;;2.30;0.77;;;13.40;45.80;;;;;;4964277;28;20503;-50
2021/12/05 13:58:32;;;;;;;1.23;0.80;;;13.50;46.40;;;;;;4970486;28;20498;-52
2021/12/05 14:01:08;;;;;;;1.07;0.97;;;13.50;46.00;;;;;;4973165;28;20442;-48
2021/12/05 14:04:04;;;;;;;0.97;0.87;;;13.50;45.80;;;;;;4974065;28;20426;-51
2021/12/05 14:06:58;;;;;;;0.80;0.80;;;13.50;45.70;;;;;;4967236;28;20442;-49
2021/12/05 14:09:37;;;;;;;1.70;1.07;;;13.50;45.60;;;;;;4969282;28;20545;-48
2021/12/05 14:12:02;;;;;;;1.80;1.00;;;13.60;46.10;;;;;;4973588;28;20445;-47
2021/12/05 14:15:00;;;;;;;1.43;1.00;;;13.70;45.90;;;;;;4969163;28;20486;-47
2021/12/05 14:17:32;;;;;;;2.70;1.30;;;13.60;46.20;;;;;;4968693;28;20218;-48
2021/12/05 14:20:11;;;;;;;3.20;1.17;;;13.40;47.50;;;;;;4972075;28;20471;-50
2021/12/05 14:22:38;;;;;;;2.80;1.37;;;13.20;47.90;;;;;;4973449;28;20698;-46
2021/12/05 14:25:08;;;;;;;1.70;1.17;;;13.00;48.60;;;;;;4970885;28;20468;-47
2021/12/05 14:27:38;;;;;;;2.03;1.30;;;13.00;49.00;;;;;;4971153;28;20852;-51
2021/12/05 14:30:10;;;;;;;3.70;1.20;;;13.00;49.00;;;;;;4970407;28;20431;-50
2021/12/05 14:32:38;;;;;;;2.33;1.43;;;13.00;49.00;;;;;;4973383;28;20423;-47
2021/12/05 14:35:13;;;;;;;2.00;1.23;;;13.00;49.30;;;;;;4972588;28;20490;-52
2021/12/05 14:37:42;;;;;;;1.00;0.90;;;12.90;50.30;;;;;;4972555;28;20431;-47
2021/12/05 14:40:11;;;;;;;2.00;1.30;;;12.90;50.10;;;;;;4972876;28;20859;-52
2021/12/05 14:42:40;;;;;;;1.13;1.03;;;12.90;49.60;;;;;;4973658;28;20453;-50
2021/12/05 14:45:16;;;;;;;2.27;1.60;;;12.90;49.40;;;;;;4971101;28;20522;-47
2021/12/05 14:47:44;;;;;;;2.23;2.03;;;13.00;49.50;;;;;;4971682;28;20847;-49
2021/12/05 14:50:26;;;;;;;11.00;6.17;;;12.90;49.20;;;;;;4970601;28;20463;-46
2021/12/05 14:52:55;;;;;;;6.80;4.57;;;13.00;49.40;;;;;;4972484;28;20458;-51
2021/12/05 14:55:22;;;;;;;2.40;2.10;;;12.90;49.30;;;;;;4968112;28;20494;-47
2021/12/05 14:57:57;;;;;;;3.80;3.23;;;12.90;49.60;;;;;;4967262;28;20443;-48
2021/12/05 15:00:28;;;;;;;4.20;3.80;;;12.90;49.70;;;;;;4964543;28;20434;-48
2021/12/05 15:03:06;;;;;;;2.50;2.30;;;13.00;49.60;;;;;;4967006;28;20443;-47
2021/12/05 15:05:33;;;;;;;3.80;3.50;;;13.00;49.20;;;;;;4962148;28;20798;-52
2021/12/05 15:08:09;;;;;;;3.50;3.20;;;13.00;49.10;;;;;;4969638;28;20457;-47
2021/12/05 15:10:35;;;;;;;2.70;2.00;;;13.10;49.20;;;;;;4966868;28;20474;-48
2021/12/05 15:13:01;;;;;;;3.07;2.57;;;13.10;49.00;;;;;;4963314;28;20993;-50
2021/12/05 15:15:27;;;;;;;3.30;3.00;;;13.20;49.20;;;;;;4960735;28;20487;-47
2021/12/05 15:17:55;;;;;;;2.93;2.60;;;13.20;48.70;;;;;;4970693;28;20447;-47
2021/12/05 15:20:24;;;;;;;2.47;2.27;;;13.30;48.80;;;;;;4966278;28;20454;-49
2021/12/05 15:22:59;;;;;;;2.50;2.30;;;13.30;48.50;;;;;;4967489;28;20504;-48
2021/12/05 15:25:27;;;;;;;2.80;2.60;;;13.30;48.80;;;;;;4969333;28;20430;-46
2021/12/05 15:27:55;;;;;;;2.60;2.40;;;13.30;48.10;;;;;;4965986;28;20442;-50
2021/12/05 15:30:30;;;;;;;2.83;2.63;;;13.30;48.10;;;;;;4963510;28;20439;-47
2021/12/05 15:33:03;;;;;;;4.20;3.57;;;13.30;48.40;;;;;;4957600;28;20458;-46
2021/12/05 15:35:29;;;;;;;3.27;2.97;;;13.30;48.20;;;;;;4958151;28;21071;-47
2021/12/05 15:38:02;;;;;;;4.80;4.03;;;13.20;48.00;;;;;;4963750;28;20455;-47
2021/12/05 15:40:31;;;;;;;5.80;5.00;;;13.20;48.00;;;;;;4962703;28;20222;-48
2021/12/05 15:43:04;;;;;;;4.40;3.60;;;13.20;48.20;;;;;;4967312;28;20438;-48
2021/12/05 15:45:30;;;;;;;3.77;3.17;;;13.20;48.30;;;;;;4970613;28;21005;-46
2021/12/05 15:47:56;;;;;;;4.37;3.93;;;13.20;48.20;;;;;;4971124;28;20965;-47
2021/12/05 15:50:28;;;;;;;4.70;4.30;;;13.20;48.10;;;;;;4969877;28;20466;-47
2021/12/05 15:52:58;;;;;;;2.77;2.57;;;13.20;48.50;;;;;;4959291;28;20439;-49
2021/12/05 15:55:38;;;;;;;3.07;2.87;;;13.20;48.50;;;;;;4963918;28;20490;-48
2021/12/05 15:58:09;;;;;;;2.80;2.60;;;13.20;48.30;;;;;;4966929;28;20538;-47
2021/12/05 16:00:42;;;;;;;2.70;2.30;;;13.20;48.30;;;;;;4962069;28;20438;-47
2021/12/05 16:03:09;;;;;;;2.67;2.47;;;13.20;48.20;;;;;;4967847;28;20450;-47
2021/12/05 16:05:40;;;;;;;3.97;2.90;;;13.10;48.10;;;;;;4965519;28;20459;-50
2021/12/05 16:08:09;;;;;;;2.50;2.30;;;13.10;48.20;;;;;;4962104;28;20464;-48
2021/12/05 16:10:38;;;;;;;3.07;2.30;;;13.10;48.10;;;;;;4965572;28;20499;-46
2021/12/05 16:13:21;;;;;;;3.60;2.60;;;13.00;48.20;;;;;;4963658;28;20432;-47
2021/12/05 16:15:50;;;;;;;6.83;5.77;;;13.00;48.40;;;;;;4960463;28;20450;-47
2021/12/05 16:18:17;;;;;;;3.93;3.63;;;13.00;48.40;;;;;;4964214;28;20441;-46
2021/12/05 16:20:47;;;;;;;4.23;3.23;;;12.90;48.50;;;;;;4964982;28;20478;-48
2021/12/05 16:23:23;;;;;;;6.93;4.57;;;12.80;48.90;;;;;;4965892;28;20439;-47
2021/12/05 16:25:54;;;;;;;5.23;4.00;;;12.80;49.00;;;;;;4961774;28;20458;-47
2021/12/05 16:28:30;;;;;;;2.90;2.60;;;12.80;49.00;;;;;;4964605;28;20869;-46
2021/12/05 16:31:05;;;;;;;3.60;2.67;;;12.60;49.20;;;;;;4964061;28;20442;-50
2021/12/05 16:33:31;;;;;;;3.00;2.23;;;12.50;49.20;;;;;;4965053;28;20465;-48
2021/12/05 16:35:58;;;;;;;3.20;2.63;;;12.40;49.30;;;;;;4962068;28;20435;-47
2021/12/05 16:38:32;;;;;;;5.60;3.87;;;12.20;49.50;;;;;;4959019;28;20447;-48
2021/12/05 16:41:29;;;;;;;7.23;4.90;;;12.00;49.90;;;;;;4967187;28;20661;-47
2021/12/05 16:44:10;;;;;;;12.23;7.10;;;11.90;50.40;;;;;;4962550;28;20454;-47
2021/12/05 16:46:46;;;;;;;13.03;6.63;;;11.80;50.60;;;;;;4967383;28;20541;-47
2021/12/05 16:49:37;;;;;;;8.47;7.50;;;11.70;51.00;;;;;;4964496;28;20447;-46
2021/12/05 16:52:21;;;;;;;24.17;16.77;;;11.60;51.30;;;;;;4960879;28;20450;-46
2021/12/05 16:54:54;;;;;;;22.47;17.40;;;11.60;51.90;;;;;;4964762;28;20501;-47
2021/12/05 16:57:29;;;;;;;13.63;10.27;;;11.50;51.30;;;;;;4965213;28;20807;-47
2021/12/05 16:59:59;;;;;;;10.30;8.50;;;11.40;51.40;;;;;;4965668;28;20878;-47
2021/12/05 17:02:31;;;;;;;5.93;4.97;;;11.30;51.50;;;;;;4967868;28;20438;-50
2021/12/05 17:05:06;;;;;;;7.27;5.70;;;11.20;51.70;;;;;;4963876;28;20783;-47
2021/12/05 17:08:09;;;;;;;5.20;4.70;;;11.10;52.00;;;;;;4965422;28;21962;-48
2021/12/05 17:10:34;;;;;;;8.73;6.23;;;11.00;52.40;;;;;;4970839;28;20482;-46
2021/12/05 17:13:11;;;;;;;9.23;8.33;;;11.00;52.70;;;;;;4972794;28;20473;-48
2021/12/05 17:15:51;;;;;;;7.23;5.57;;;11.00;52.70;;;;;;4967031;28;20570;-47
2021/12/05 17:18:33;;;;;;;5.00;4.50;;;10.70;53.10;;;;;;4970088;28;20472;-46
2021/12/05 17:21:11;;;;;;;4.60;3.70;;;10.50;53.70;;;;;;4969661;28;20569;-47
2021/12/05 17:23:42;;;;;;;4.80;3.70;;;10.30;54.20;;;;;;4967981;28;20866;-47
2021/12/05 17:26:30;;;;;;;5.93;4.13;;;10.10;54.30;;;;;;4974104;28;20441;-48
2021/12/05 17:29:07;;;;;;;5.43;3.90;;;10.10;54.60;;;;;;4960481;28;20458;-47
2021/12/05 17:31:38;;;;;;;6.10;4.00;;;10.00;54.80;;;;;;4970656;28;20460;-47
2021/12/05 17:34:20;;;;;;;5.20;3.73;;;10.00;55.00;;;;;;4967349;28;20494;-47
2021/12/05 17:36:54;;;;;;;4.17;3.67;;;9.80;56.30;;;;;;4965536;28;20446;-46
2021/12/05 17:39:23;;;;;;;5.27;3.90;;;9.90;56.10;;;;;;4968466;28;20480;-47
2021/12/05 17:41:51;;;;;;;5.47;4.07;;;10.00;55.00;;;;;;4969115;28;20437;-48
2021/12/05 17:44:19;;;;;;;4.97;3.73;;;10.10;54.70;;;;;;4969496;28;20504;-47
2021/12/05 17:46:47;;;;;;;4.20;3.80;;;10.20;54.70;;;;;;4962425;28;20940;-46
2021/12/05 17:49:16;;;;;;;5.30;4.60;;;10.20;54.90;;;;;;4965524;28;20446;-52
2021/12/05 17:51:43;;;;;;;6.07;5.47;;;10.20;54.70;;;;;;4968620;28;20450;-48
2021/12/05 17:54:11;;;;;;;8.37;6.90;;;10.30;54.70;;;;;;4969483;28;20487;-49
2021/12/05 17:59:13;;;;;;;7.37;4.80;;;10.10;55.00;;;;;;4967561;28;20913;-48
2021/12/05 18:04:30;;;;;;;5.37;3.73;;;10.10;55.10;;;;;;4966507;28;20457;-50
2021/12/05 18:06:56;;;;;;;3.57;3.27;;;10.10;55.10;;;;;;4966733;28;20455;-50
2021/12/05 18:09:24;;;;;;;2.90;2.60;;;10.10;55.20;;;;;;4968503;28;20934;-47
2021/12/05 18:11:51;;;;;;;2.70;2.50;;;10.10;55.00;;;;;;4960811;28;20443;-46
2021/12/05 18:14:17;;;;;;;3.87;2.77;;;10.20;54.90;;;;;;4960781;28;20492;-47
2021/12/05 18:16:43;;;;;;;2.63;2.43;;;10.20;55.00;;;;;;4969780;28;20434;-48
2021/12/05 18:19:13;;;;;;;4.10;3.43;;;10.20;54.90;;;;;;4969247;28;20760;-48
2021/12/05 18:21:39;;;;;;;5.17;4.20;;;10.10;54.90;;;;;;4969855;28;20558;-47
2021/12/05 18:24:09;;;;;;;7.13;5.77;;;10.20;54.80;;;;;;4968416;28;20965;-47
2021/12/05 18:26:35;;;;;;;5.57;5.07;;;10.10;55.00;;;;;;4973168;28;20435;-47
2021/12/05 18:29:01;;;;;;;4.43;4.03;;;10.00;55.20;;;;;;4969659;28;20431;-47
2021/12/05 18:31:31;;;;;;;5.73;4.90;;;10.00;55.30;;;;;;4967379;28;20447;-47
2021/12/05 18:34:01;;;;;;;4.70;4.13;;;9.90;56.20;;;;;;4966402;28;20302;-47
2021/12/05 18:36:30;;;;;;;5.97;5.37;;;9.80;56.50;;;;;;4964462;28;20440;-47
2021/12/05 18:38:56;;;;;;;8.27;7.33;;;9.80;56.60;;;;;;4966478;28;20438;-47
2021/12/05 18:41:26;;;;;;;7.43;5.40;;;9.90;56.60;;;;;;4972408;28;20438;-47
2021/12/05 18:43:51;;;;;;;5.57;5.00;;;9.90;57.00;;;;;;4967039;28;20215;-47
2021/12/05 18:46:17;;;;;;;4.40;4.00;;;10.00;55.60;;;;;;4964965;28;20848;-46
2021/12/05 18:48:46;;;;;;;4.17;3.77;;;10.00;55.50;;;;;;4966818;28;20199;-46
2021/12/05 18:51:13;;;;;;;3.77;3.47;;;10.00;55.50;;;;;;4966688;28;20439;-46
2021/12/05 18:53:52;;;;;;;4.40;4.00;;;9.90;56.50;;;;;;4968103;28;20427;-48
2021/12/05 18:56:18;;;;;;;5.67;3.90;;;9.80;57.10;;;;;;4964344;28;20849;-51
2021/12/05 18:58:47;;;;;;;7.30;4.80;;;9.90;56.90;;;;;;4970216;28;20435;-48